Nearby METAR Reports

 

KIAG - Niagara Falls, New York, USA
Distance from station: W 12mi, 20km
Updated: 04/01/2020 5:53am
Clear
Clear
 Wind from NNE
Wind: NNE 7 mph , 11 km/h
Temperature: 34°F , 1°C
Wind Chill: 28°F , -2°C
Dew Point: 27°F , -3°C
Humidity: 75%
Barometer: 1012.9 hPa
Clouds: Clear
Visibility: 10 miles , 16 km
2020/04/01 09:53 KIAG 010953Z AUTO 02006KT 10SM CLR 01/M03 A2991 RMK AO2 SLP139 T00061033
KBUF - Buffalo/Cheektow, New York, USA
Distance from station: S 13mi, 21km
Updated: 04/01/2020 5:54am
Mostly cloudy
Mostly cloudy
 Wind from NNE
Wind: NNE 7 mph , 11 km/h
Temperature: 36°F , 2°C
Wind Chill: 30°F , -1°C
Dew Point: 27°F , -3°C
Humidity: 70%
Barometer: 1012.5 hPa
Clouds: Mostly cloudy
Visibility: 10 miles , 16 km
Cloud details: Mostly cloudy 6000 ft
2020/04/01 09:54 KBUF 010954Z 02006KT 10SM BKN060 02/M03 A2990 RMK AO2 SLP131 T00171028
 
KROC - Rochester, New York, USA
Distance from station: E 51mi, 82km
Updated: 04/01/2020 5:54am
Few Clouds
Few Clouds
 Wind from N
Wind: N 6 mph , 9 km/h
Temperature: 32°F , 0°C
Wind Chill: 26°F , -3°C
Dew Point: 27°F , -3°C
Humidity: 80%
Barometer: 1012.2 hPa
Clouds: Few Clouds
Visibility: 10 miles , 16 km
Cloud details: Few Clouds 8000 ft
2020/04/01 09:54 KROC 010954Z 35005KT 10SM FEW080 00/M03 A2989 RMK AO2 SLP131 T00001028 $
CYSN - St. Catharines A, Ontario, Canada
Distance from station: WNW 25mi, 40km
Updated: 03/31/2020 9:00pm
NOT Current
Overcast
Overcast
 Wind from ENE
Wind: ENE 12 mph , 19 km/h, Gust: 18 mph , 30 km/h
Temperature: 41°F , 5°C
Wind Chill: 34°F , 1°C
Dew Point: 39°F , 4°C
Humidity: 93%
Barometer: 1015.2 hPa
Clouds: Overcast
Visibility: 15 miles , 24 km
Cloud details: Few Clouds 1100 ft
Overcast 6400 ft
2020/04/01 01:00 CYSN 010100Z 07010G16KT 15SM FEW011 OVC064 05/04 A2998 RMK SF2SC6 LAST STFD OBS/NEXT 041100 UTC SLP156
 
KOLE - Olean, New York, USA
Distance from station: SSE 63mi, 102km
Updated: 04/01/2020 5:55am
Overcast
Overcast
 Wind from NE
Wind: NE 5 mph , 7 km/h
Temperature: 32°F , 0°C
Wind Chill: 27°F , -3°C
Dew Point: 32°F , 0°C
Humidity: 100%
Barometer: 1010.2 hPa
Clouds: Overcast
Visibility: 10 miles , 16 km
Cloud details: Mostly cloudy 700 ft
Overcast 1300 ft
2020/04/01 09:55 KOLE 010955Z AUTO 04004KT 10SM BKN007 OVC013 00/00 A2983 RMK AO2
KJHW - Jamestown, New York, USA
Distance from station: SSW 74mi, 119km
Updated: 04/01/2020 5:56am
Light rain, Overcast
Light rain, Overcast
 Wind from NNE
Wind: NNE 6 mph , 9 km/h
Temperature: 37°F , 3°C
Wind Chill: 32°F , 0°C
Dew Point: 34°F , 1°C
Humidity: 87%
Barometer: 1010.8 hPa
Summary: Light rain
Clouds: Overcast
Visibility: 10 miles , 16 km
Cloud details: Few Clouds 900 ft
Overcast 2800 ft
2020/04/01 09:56 KJHW 010956Z AUTO 02005KT 10SM -RA FEW009 OVC028 03/01 A2985 RMK AO2 RAE11B29 SLP123 P0000 T00280011
 
CWWZ - Port Weller (mar, Ontario, Canada
Distance from station: WNW 28mi, 45km
Updated: 04/01/2020 6:00am

 Wind from ENE
Wind: ENE 15 mph , 24 km/h
Temperature: 39°F , 4°C
Wind Chill: 31°F , -1°C
Dew Point: 28°F , -2°C
Humidity: 65%
2020/04/01 10:00 CWWZ 011000Z AUTO 06013KT 04/M02 RMK AO1 SLP138 T00421021 58001
CWPC - Port Colborne(Au, Ontario, Canada
Distance from station: WSW 33mi, 53km
Updated: 04/01/2020 6:00am

 Wind from NE
Wind: NE 10 mph , 17 km/h
Temperature: 37°F , 3°C
Wind Chill: 30°F , -1°C
Dew Point: 27°F , -3°C
Humidity: 65%
2020/04/01 10:00 CWPC 011000Z AUTO 04009KT 03/M03 RMK AO1 SLP133 T00271033 53001
 
CXVN - Vineland (au8), Ontario, Canada
Distance from station: W 36mi, 58km
Updated: 04/01/2020 6:00am

 Wind from NE
Wind: NE 9 mph , 15 km/h
Temperature: 39°F , 4°C
Wind Chill: 33°F , 1°C
Dew Point: 28°F , -2°C
Humidity: 65%
2020/04/01 10:00 CXVN 011000Z AUTO 04008KT 04/M02 RMK AO1 SLP141 T00351020 55001
CYTZ - Toronto Il Vor, Ontario, Canada
Distance from station: NW 50mi, 81km
Updated: 04/01/2020 6:00am
Clear
Clear
 Wind from NNE
Wind: NNE 10 mph , 17 km/h, Gust: 18 mph , 30 km/h
Temperature: 39°F , 4°C
Wind Chill: 32°F , 0°C
Dew Point: 19°F , -7°C
Humidity: 45%
Barometer: 1013.9 hPa
Clouds: Clear
Visibility: 9 miles , 14 km
2020/04/01 10:00 CYTZ 011000Z AUTO 03009G16KT 9SM CLR 04/M07 A2994 RMK SLP143
 
CXTO - Toronto City, Ontario, Canada
Distance from station: NW 52mi, 84km
Updated: 04/01/2020 6:00am

 
Temperature: 37°F , 3°C
Dew Point: 18°F , -8°C
Humidity: 45%
2020/04/01 10:00 CXTO 011000Z AUTO 03/M08 RMK AO1 SLP147 T00251079 56003
KDKK - Dunkirk, New York, USA
Distance from station: SW 52mi, 84km
Updated: 04/01/2020 5:53am
Overcast
Overcast
 Wind from NNE
Wind: NNE 10 mph , 17 km/h
Temperature: 39°F , 4°C
Wind Chill: 32°F , 0°C
Dew Point: 28°F , -2°C
Humidity: 65%
Barometer: 1012.5 hPa
Clouds: Overcast
Visibility: 10 miles , 16 km
Cloud details: Overcast 5000 ft
2020/04/01 09:53 KDKK 010953Z AUTO 03009KT 10SM OVC050 04/M02 A2990 RMK AO2 SLP128 T00391017 $
 
CYOO - Oshawa, Ontario, Canada
Distance from station: N 56mi, 90km
Updated: 04/01/2020 6:00am
Clear
Clear
 Wind from N
Wind: N 9 mph , 15 km/h
Temperature: 32°F , 0°C
Wind Chill: 24°F , -4°C
Dew Point: 23°F , -5°C
Humidity: 69%
Barometer: 1013.9 hPa
Clouds: Clear
Visibility: 9 miles , 14 km
2020/04/01 10:00 CYOO 011000Z AUTO 01008KT 9SM CLR M00/M05 A2994 RMK SLP146
CWWB - Burlington Piers, Ontario, Canada
Distance from station: WNW 56mi, 91km
Updated: 04/01/2020 6:00am

 Wind from NE
Wind: NE 10 mph , 17 km/h
Temperature: 39°F , 4°C
Wind Chill: 32°F , 0°C
Dew Point: 28°F , -2°C
Humidity: 65%
2020/04/01 10:00 CWWB 011000Z AUTO 04009KT 04/M02 RMK AO1 SLP142 T00401015 57001
 
CYYZ - Toronto/Pearson, Ontario, Canada
Distance from station: NW 60mi, 96km
Updated: 04/01/2020 6:00am
Few Clouds
Few Clouds
 Wind from ENE
Wind: ENE 12 mph , 19 km/h
Temperature: 36°F , 2°C
Wind Chill: 28°F , -2°C
Dew Point: 21°F , -6°C
Humidity: 56%
Barometer: 1014.2 hPa
Clouds: Few Clouds
Visibility: 15 miles , 24 km
Cloud details: Few Clouds 6000 ft
2020/04/01 10:00 CYYZ 011000Z 06010KT 15SM FEW060 02/M06 A2995 RMK SC1 SC TR SLP148
CYKZ - Toronto Buttonvi, Ontario, Canada
Distance from station: NW 62mi, 99km
Updated: 01/03/2019 4:00am
NOT Current
Partly cloudy
Partly cloudy
 Wind from WSW
Wind: WSW 5 mph , 7 km/h
Temperature: 27°F , -3°C
Wind Chill: 21°F , -6°C
Dew Point: 23°F , -5°C
Humidity: 86%
Barometer: 1010.8 hPa
Clouds: Partly cloudy
Visibility: 15 miles , 24 km
Cloud details: Partly cloudy 4000 ft
2019/01/03 09:00 CYKZ 030900Z 25004KT 15SM SCT040 M03/M05 A2985 RMK SC3 LAST STFD OBS FAREWELL SLP118
 
CXHM - Hamilton Rbg Cs, Ontario, Canada
Distance from station: W 62mi, 100km
Updated: 04/01/2020 6:00am

 Wind from NE
Wind: NE 5 mph , 7 km/h
2020/04/01 10:00 CXHM 011000Z AUTO 04004KT RMK AO1 56001
KDSV - Dansville, New York, USA
Distance from station: SE 62mi, 100km
Updated: 04/01/2020 5:54am
Partly cloudy
Partly cloudy
 Wind from NNW
Wind: NNW 7 mph , 11 km/h
Temperature: 36°F , 2°C
Wind Chill: 30°F , -1°C
Dew Point: 28°F , -2°C
Humidity: 75%
Barometer: 1011.5 hPa
Clouds: Partly cloudy
Visibility: 10 miles , 16 km
Cloud details: Few Clouds 4400 ft
Partly cloudy 7000 ft
2020/04/01 09:54 KDSV 010954Z AUTO 33006KT 10SM FEW044 SCT070 02/M02 A2987 RMK AO2 SLP129 T00171017
 
CYHM - Hamilton Airport, Ontario, Canada
Distance from station: W 63mi, 101km
Updated: 04/01/2020 6:00am
Partly cloudy
Partly cloudy
 Wind from NE
Wind: NE 10 mph , 17 km/h
Temperature: 34°F , 1°C
Wind Chill: 26°F , -3°C
Dew Point: 25°F , -4°C
Humidity: 70%
Barometer: 1013.2 hPa
Clouds: Partly cloudy
Visibility: 15 miles , 24 km
Cloud details: Partly cloudy 6200 ft
2020/04/01 10:00 CYHM 011000Z 05009KT 15SM SCT062 01/M04 A2992 RMK SC3 SLP140
CWNC - Cobourg (mars), Ontario, Canada
Distance from station: NNE 63mi, 102km
Updated: 04/01/2020 6:00am

 Wind from NNE
Wind: NNE 7 mph , 11 km/h
Temperature: 36°F , 2°C
Wind Chill: 30°F , -1°C
Dew Point: 18°F , -8°C
Humidity: 48%
2020/04/01 10:00 CWNC 011000Z AUTO 03006KT 02/M08 RMK AO1 SLP141 T00151075 55005